Time;durP1;ratioP1;P1;durP2;ratioP2;P2;SDS_P1;SDS_P2;PMS_P1;PMS_P2;Temp;Humidity;BMP_temperature;BMP_pressure;BME280_temperature;BME280_humidity;BME280_pressure;Samples;Min_cycle;Max_cycle;Signal;HPM_P1;HPM_P2
2022/05/09 00:00:18;;;;;;;;;15.50;15.50;;;;;18.85;48.11;101729.06;6304084;22;45541;-77
2022/05/09 00:06:05;;;;;;;;;14.00;13.50;;;;;18.73;48.19;101724.00;6303548;22;45489;-78
2022/05/09 00:08:31;;;;;;;;;15.00;13.75;;;;;18.74;48.70;101723.84;6304009;22;45955;-78
2022/05/09 00:10:56;;;;;;;;;14.00;13.00;;;;;18.72;48.00;101727.63;6304093;22;45514;-78
2022/05/09 00:13:22;;;;;;;;;16.75;14.00;;;;;18.63;47.87;101726.59;6304012;22;45547;-78
2022/05/09 00:15:47;;;;;;;;;12.75;11.50;;;;;18.62;48.44;101726.75;6303605;22;46521;-77
2022/05/09 00:18:12;;;;;;;;;17.75;15.25;;;;;18.55;48.47;101729.09;6303846;22;45469;-78
2022/05/09 00:20:38;;;;;;;;;17.25;14.00;;;;;18.46;47.96;101722.72;6303726;22;45667;-78
2022/05/09 00:23:03;;;;;;;;;14.00;12.50;;;;;18.45;48.46;101726.38;6304033;22;45558;-78
2022/05/09 00:25:28;;;;;;;;;16.00;13.25;;;;;18.46;48.06;101725.38;6303783;22;46407;-79
2022/05/09 00:27:55;;;;;;;;;12.00;11.00;;;;;18.41;48.63;101730.22;6275591;22;47549;-78
2022/05/09 00:30:21;;;;;;;;;11.00;11.00;;;;;18.36;48.71;101719.16;6304090;22;45576;-78
2022/05/09 00:36:08;;;;;;;;;11.50;11.50;;;;;18.25;48.43;101724.56;6296344;22;46365;-78
2022/05/09 00:38:33;;;;;;;;;15.00;14.50;;;;;18.23;48.48;101729.16;6303560;22;45548;-78
2022/05/09 00:43:43;;;;;;;;;14.75;13.00;;;;;18.19;48.99;101734.88;6303565;22;45479;-78
2022/05/09 00:46:09;;;;;;;;;13.75;13.00;;;;;18.11;48.84;101726.72;6275246;22;46426;-78
2022/05/09 00:48:35;;;;;;;;;13.25;13.00;;;;;18.11;49.19;101730.22;6303866;22;46172;-76
2022/05/09 00:51:03;;;;;;;;;17.25;14.50;;;;;18.05;49.15;101733.38;6303871;22;45612;-76
2022/05/09 00:53:31;;;;;;;;;17.25;14.50;;;;;18.02;49.16;101734.50;6304205;22;45525;-76
2022/05/09 00:56:01;;;;;;;;;14.50;13.25;;;;;18.00;49.68;101736.41;6303593;22;45781;-77
2022/05/09 00:58:34;;;;;;;;;11.00;10.50;;;;;17.97;48.96;101733.19;6303926;22;46167;-77
2022/05/09 01:07:06;;;;;;;;;11.25;10.25;;;;;17.76;49.20;101727.84;6303248;22;45761;-78
2022/05/09 01:09:32;;;;;;;;;9.50;9.25;;;;;17.73;48.94;101727.28;6303824;22;46358;-78
2022/05/09 01:11:57;;;;;;;;;11.50;10.50;;;;;17.67;49.05;101717.19;6303724;22;45582;-78
2022/05/09 01:14:28;;;;;;;;;11.00;9.25;;;;;17.65;49.34;101714.69;6303792;22;45729;-78
2022/05/09 01:16:53;;;;;;;;;10.00;9.00;;;;;17.60;49.25;101716.84;6303740;22;46455;-78
2022/05/09 01:19:27;;;;;;;;;11.00;10.00;;;;;17.51;49.33;101715.78;6303683;22;46564;-78
2022/05/09 01:21:53;;;;;;;;;11.00;11.00;;;;;17.53;49.26;101718.31;6303807;22;45630;-78
2022/05/09 01:24:23;;;;;;;;;10.50;10.00;;;;;17.49;48.88;101725.66;6303931;22;45542;-78
2022/05/09 01:26:48;;;;;;;;;10.25;8.75;;;;;17.41;49.16;101716.66;6303523;22;45458;-78
2022/05/09 01:29:21;;;;;;;;;10.25;8.75;;;;;17.37;49.23;101728.47;6303766;22;45841;-78
2022/05/09 01:31:49;;;;;;;;;8.00;6.75;;;;;17.27;48.99;101715.16;6303671;22;45650;-78
2022/05/09 01:34:16;;;;;;;;;9.50;8.25;;;;;17.28;49.33;101724.75;6275501;22;45822;-77
2022/05/09 01:36:44;;;;;;;;;8.75;8.00;;;;;17.16;49.08;101715.19;6303054;22;45623;-78
2022/05/09 01:39:12;;;;;;;;;7.00;7.00;;;;;17.18;49.04;101722.03;6303655;22;45791;-78
2022/05/09 01:41:45;;;;;;;;;7.00;7.00;;;;;17.11;49.34;101720.00;6303665;22;45607;-78
2022/05/09 01:44:13;;;;;;;;;8.75;8.00;;;;;17.10;49.46;101719.16;6303681;22;45585;-78
2022/05/09 01:49:32;;;;;;;;;9.50;8.25;;;;;17.00;49.50;101718.22;6303364;22;46006;-76
2022/05/09 01:52:00;;;;;;;;;7.00;5.00;;;;;16.93;49.63;101705.59;6303454;22;45466;-76
2022/05/09 01:54:26;;;;;;;;;6.50;6.00;;;;;16.89;49.30;101701.50;6303809;22;45681;-76
2022/05/09 01:56:51;;;;;;;;;8.25;8.00;;;;;16.93;49.47;101719.69;6303026;22;45577;-76
2022/05/09 01:59:18;;;;;;;;;8.75;8.00;;;;;16.90;49.75;101709.31;6303591;22;46275;-76
2022/05/09 02:01:50;;;;;;;;;9.00;9.00;;;;;16.81;49.17;101698.63;6303682;22;45624;-78
2022/05/09 02:04:16;;;;;;;;;9.50;8.50;;;;;16.86;49.35;101705.22;6303665;22;45695;-78
2022/05/09 02:06:42;;;;;;;;;7.00;6.50;;;;;16.85;49.42;101708.00;6303364;22;46666;-78
2022/05/09 02:09:08;;;;;;;;;8.50;7.00;;;;;16.84;49.64;101717.78;6303694;22;46170;-78
2022/05/09 02:11:34;;;;;;;;;9.00;7.00;;;;;16.82;49.06;101706.44;6303530;22;45569;-78
2022/05/09 02:14:00;;;;;;;;;7.00;6.50;;;;;16.80;49.24;101711.00;6303775;22;45391;-77
2022/05/09 02:16:26;;;;;;;;;9.25;9.00;;;;;16.80;49.19;101708.38;6303412;22;46316;-77
2022/05/09 02:22:14;;;;;;;;;8.00;7.00;;;;;16.77;49.58;101714.75;6302976;22;45693;-77
2022/05/09 02:24:39;;;;;;;;;8.00;7.25;;;;;16.72;49.30;101703.69;6303631;22;45632;-77
2022/05/09 02:27:05;;;;;;;;;8.25;7.50;;;;;16.72;49.58;101706.34;6303169;22;45543;-76
2022/05/09 02:29:31;;;;;;;;;5.75;5.50;;;;;16.70;49.51;101702.13;6303543;22;46263;-76
2022/05/09 02:31:57;;;;;;;;;8.00;8.00;;;;;16.67;49.34;101708.53;6303358;22;45470;-77
2022/05/09 02:34:23;;;;;;;;;6.25;6.25;;;;;16.58;49.39;101695.97;6303680;22;45415;-77
2022/05/09 02:36:49;;;;;;;;;8.00;8.00;;;;;16.58;49.52;101703.91;6302587;22;45592;-76
2022/05/09 02:39:14;;;;;;;;;7.50;7.50;;;;;16.54;49.77;101702.47;6303445;22;46201;-76
2022/05/09 02:41:40;;;;;;;;;8.75;6.50;;;;;16.52;49.57;101707.03;6303257;22;45560;-76
2022/05/09 02:44:06;;;;;;;;;7.00;7.00;;;;;16.46;49.88;101704.88;6303384;22;45708;-77
2022/05/09 02:46:31;;;;;;;;;9.00;6.00;;;;;16.45;49.35;101705.84;6274922;22;47300;-77
2022/05/09 02:52:18;;;;;;;;;7.00;7.00;;;;;16.44;49.76;101700.66;6302809;22;45642;-77
2022/05/09 02:54:44;;;;;;;;;6.50;4.25;;;;;16.42;49.83;101698.13;6303390;22;45684;-77
2022/05/09 02:57:10;;;;;;;;;8.75;8.00;;;;;16.40;49.98;101702.72;6303332;22;46767;-77
2022/05/09 02:59:36;;;;;;;;;9.00;9.00;;;;;16.35;50.10;101691.66;6303141;22;45625;-77
2022/05/09 03:02:01;;;;;;;;;7.25;6.00;;;;;16.29;50.33;101684.19;6303187;22;45582;-77
2022/05/09 03:04:39;;;;;;;;;9.50;8.00;;;;;16.23;50.32;101677.56;6303404;22;45532;-77
2022/05/09 03:07:14;;;;;;;;;7.00;7.00;;;;;16.24;50.52;101691.66;6302772;22;45475;-78
2022/05/09 03:09:42;;;;;;;;;10.00;9.00;;;;;16.16;50.45;101686.94;6303116;22;46357;-76
2022/05/09 03:12:09;;;;;;;;;7.00;6.00;;;;;16.16;50.46;101699.31;6302948;22;45609;-76
2022/05/09 03:14:35;;;;;;;;;7.00;6.75;;;;;16.12;50.65;101692.59;6302858;22;45509;-77
2022/05/09 03:17:01;;;;;;;;;8.00;7.00;;;;;16.09;50.67;101698.09;6303100;22;45616;-77
2022/05/09 03:19:27;;;;;;;;;6.25;6.00;;;;;16.08;50.89;101696.44;6303087;22;45599;-77
2022/05/09 03:21:53;;;;;;;;;8.75;7.75;;;;;16.02;50.73;101687.16;6303110;22;45544;-77
2022/05/09 03:24:19;;;;;;;;;8.50;6.75;;;;;16.07;50.70;101692.09;6303196;22;45698;-77
2022/05/09 03:26:49;;;;;;;;;9.00;6.25;;;;;16.00;50.84;101673.22;6302898;22;46778;-77
2022/05/09 03:29:16;;;;;;;;;9.25;8.50;;;;;16.06;51.26;101685.97;6302949;22;46001;-76
2022/05/09 03:31:41;;;;;;;;;8.75;7.75;;;;;16.03;51.15;101695.94;6302872;22;45677;-76
2022/05/09 03:37:30;;;;;;;;;8.50;8.25;;;;;15.97;51.13;101683.19;6296678;22;46197;-77
2022/05/09 03:39:55;;;;;;;;;9.00;8.00;;;;;15.96;51.37;101695.56;6302927;22;45974;-77
2022/05/09 03:42:21;;;;;;;;;9.00;8.00;;;;;15.92;51.65;101691.47;6302777;22;45581;-77
2022/05/09 03:44:47;;;;;;;;;8.50;8.00;;;;;15.90;51.58;101688.94;6302133;22;45600;-77
2022/05/09 03:47:12;;;;;;;;;9.00;9.00;;;;;15.89;51.51;101691.69;6302801;22;46430;-77
2022/05/09 03:49:38;;;;;;;;;8.00;8.00;;;;;15.85;51.63;101692.88;6302014;22;47160;-77
2022/05/09 03:52:04;;;;;;;;;10.00;8.25;;;;;15.73;52.00;101689.38;6302203;22;45548;-77
2022/05/09 03:54:29;;;;;;;;;11.00;8.50;;;;;15.70;52.16;101688.75;6302875;22;45418;-77
2022/05/09 03:56:56;;;;;;;;;11.75;10.25;;;;;15.67;52.38;101687.19;6302702;22;46266;-77
2022/05/09 03:59:21;;;;;;;;;10.50;8.25;;;;;15.63;52.31;101690.16;6302172;22;47426;-77
2022/05/09 04:01:47;;;;;;;;;10.75;9.75;;;;;15.58;52.26;101693.16;6301738;22;45623;-76
2022/05/09 04:07:33;;;;;;;;;9.75;9.50;;;;;15.52;52.46;101689.19;6302121;22;46012;-78
2022/05/09 04:09:59;;;;;;;;;11.00;9.25;;;;;15.47;52.67;101688.66;6302552;22;46169;-79
2022/05/09 04:12:24;;;;;;;;;12.00;10.00;;;;;15.45;52.77;101698.47;6302448;22;45357;-77
2022/05/09 04:17:33;;;;;;;;;10.50;8.00;;;;;15.42;52.82;101693.44;6302028;22;46121;-78
2022/05/09 04:19:59;;;;;;;;;10.75;9.00;;;;;15.39;52.90;101684.88;6274798;22;47093;-78
2022/05/09 04:22:24;;;;;;;;;13.50;11.25;;;;;15.42;53.01;101697.88;6303856;22;45512;-78
2022/05/09 04:24:50;;;;;;;;;12.50;10.25;;;;;15.35;52.91;101683.41;6304093;22;45442;-78
2022/05/09 04:27:16;;;;;;;;;12.25;9.50;;;;;15.32;52.85;101691.59;6303774;22;45613;-78
2022/05/09 04:29:41;;;;;;;;;10.75;8.25;;;;;15.31;53.25;101689.91;6304086;22;45552;-78
2022/05/09 04:32:07;;;;;;;;;12.50;9.50;;;;;15.32;53.32;101687.16;6303793;22;45455;-78
2022/05/09 04:37:56;;;;;;;;;12.75;11.25;;;;;15.37;53.45;101685.00;6300783;22;45496;-78
2022/05/09 04:40:30;;;;;;;;;13.75;12.50;;;;;15.36;53.78;101696.53;6304084;22;45985;-78
2022/05/09 04:42:59;;;;;;;;;14.50;12.75;;;;;15.30;53.28;101672.34;6303731;22;45536;-78
2022/05/09 04:45:27;;;;;;;;;12.50;11.25;;;;;15.27;53.53;101677.88;6304000;22;45712;-78
2022/05/09 04:47:53;;;;;;;;;7.25;7.00;;;;;15.34;53.51;101694.94;6303851;22;45713;-78
2022/05/09 04:50:22;;;;;;;;;15.00;10.50;;;;;15.25;53.46;101674.50;6303804;22;46384;-78
2022/05/09 04:52:48;;;;;;;;;11.25;11.00;;;;;15.27;53.83;101684.00;6303653;22;45783;-78
2022/05/09 04:55:15;;;;;;;;;11.00;10.50;;;;;15.31;53.80;101690.75;6303948;22;45434;-77
2022/05/09 04:57:41;;;;;;;;;15.50;11.00;;;;;15.27;53.53;101686.66;6303843;22;46428;-78
2022/05/09 05:00:14;;;;;;;;;13.50;12.00;;;;;15.27;53.55;101688.44;6303352;22;45968;-78
2022/05/09 05:02:39;;;;;;;;;12.00;11.50;;;;;15.28;53.93;101687.47;6303770;22;45663;-77
2022/05/09 05:08:30;;;;;;;;;13.25;10.50;;;;;15.28;53.13;101692.75;6303561;22;45489;-78
2022/05/09 05:10:56;;;;;;;;;14.00;10.25;;;;;15.29;53.75;101692.63;6303851;22;45990;-77
2022/05/09 05:13:22;;;;;;;;;14.50;12.00;;;;;15.27;53.45;101686.66;6303568;22;45510;-78
2022/05/09 05:15:48;;;;;;;;;14.75;13.50;;;;;15.32;53.45;101694.22;6304029;22;45583;-78
2022/05/09 05:18:18;;;;;;;;;12.25;10.00;;;;;15.22;53.94;101683.50;6303668;22;45591;-78
2022/05/09 05:20:43;;;;;;;;;12.50;10.00;;;;;15.32;53.76;101697.72;6303706;22;46311;-78
2022/05/09 05:23:10;;;;;;;;;12.00;11.00;;;;;15.28;53.97;101690.94;6303686;22;45612;-77
2022/05/09 05:25:35;;;;;;;;;13.75;12.50;;;;;15.33;53.85;101701.19;6303754;22;45612;-78
2022/05/09 05:28:01;;;;;;;;;15.00;14.25;;;;;15.30;53.72;101693.47;6303746;22;45588;-78
2022/05/09 05:30:26;;;;;;;;;15.00;12.00;;;;;15.22;53.74;101678.22;6303297;22;45640;-78
2022/05/09 05:32:54;;;;;;;;;12.00;11.50;;;;;15.29;53.68;101690.00;6303225;22;45656;-78
2022/05/09 05:38:43;;;;;;;;;19.75;14.50;;;;;15.34;53.72;101694.94;6298671;22;45970;-78
2022/05/09 05:41:09;;;;;;;;;12.75;11.75;;;;;15.40;53.92;101705.03;6303422;22;46484;-78
2022/05/09 05:43:35;;;;;;;;;14.00;12.25;;;;;15.35;53.95;101689.53;6303413;22;45508;-78
2022/05/09 05:46:00;;;;;;;;;14.25;13.25;;;;;15.39;53.80;101708.63;6303096;22;45660;-78
2022/05/09 05:48:25;;;;;;;;;15.00;12.75;;;;;15.36;53.63;101700.97;6303349;22;45458;-78
2022/05/09 05:50:54;;;;;;;;;13.25;10.75;;;;;15.38;53.83;101712.25;6303534;22;45597;-78
2022/05/09 05:53:19;;;;;;;;;12.25;11.25;;;;;15.35;53.66;101700.09;6275230;22;45683;-78
2022/05/09 05:55:45;;;;;;;;;15.50;14.50;;;;;15.38;53.85;101696.41;6303320;22;45570;-78
2022/05/09 05:58:10;;;;;;;;;12.50;12.25;;;;;15.39;54.07;101693.63;6303887;22;46475;-78
2022/05/09 06:00:36;;;;;;;;;14.00;12.50;;;;;15.41;53.55;101702.31;6275095;22;47410;-78
2022/05/09 06:03:02;;;;;;;;;13.50;12.00;;;;;15.40;53.83;101689.19;6275922;22;45529;-77
2022/05/09 06:08:49;;;;;;;;;13.50;10.50;;;;;15.52;53.50;101706.81;6303245;22;45609;-76
2022/05/09 06:11:15;;;;;;;;;15.75;13.50;;;;;15.54;53.59;101704.91;6274376;22;46878;-76
2022/05/09 06:13:41;;;;;;;;;14.50;12.75;;;;;15.57;53.55;101707.31;6303451;22;45578;-78
2022/05/09 06:16:07;;;;;;;;;13.75;13.00;;;;;15.56;53.34;101708.28;6303717;22;45438;-78
2022/05/09 06:18:32;;;;;;;;;16.00;13.75;;;;;15.56;53.39;101704.78;6303400;22;46537;-76
2022/05/09 06:20:58;;;;;;;;;14.25;13.25;;;;;15.64;53.26;101715.66;6303383;22;45594;-77
2022/05/09 06:23:25;;;;;;;;;14.25;13.00;;;;;15.64;53.59;101707.72;6303386;22;45625;-79
2022/05/09 06:25:51;;;;;;;;;16.50;14.50;;;;;15.69;53.29;101721.44;6303955;22;45365;-76
2022/05/09 06:28:18;;;;;;;;;16.50;13.75;;;;;15.72;53.13;101714.09;6303766;22;45552;-78
2022/05/09 06:30:45;;;;;;;;;16.25;15.00;;;;;15.73;53.16;101707.88;6303849;22;46395;-78
2022/05/09 06:33:10;;;;;;;;;18.00;15.00;;;;;15.78;53.22;101721.56;6303876;22;45557;-78
2022/05/09 06:38:57;;;;;;;;;16.00;14.00;;;;;15.84;53.48;101712.34;6304962;22;46131;-78
2022/05/09 06:41:23;;;;;;;;;15.25;14.50;;;;;15.83;53.01;101711.50;6305821;22;46264;-78
2022/05/09 06:43:49;;;;;;;;;17.50;16.00;;;;;15.90;52.88;101722.44;6304752;22;45702;-78
2022/05/09 06:46:14;;;;;;;;;17.50;15.75;;;;;15.91;52.83;101721.50;6279058;22;45447;-78
2022/05/09 06:48:39;;;;;;;;;15.00;15.00;;;;;15.97;52.83;101721.03;6305973;22;46390;-78
2022/05/09 06:51:05;;;;;;;;;17.75;16.25;;;;;16.00;52.78;101733.16;6306906;22;45559;-78
2022/05/09 06:53:30;;;;;;;;;16.00;14.75;;;;;16.02;52.62;101736.53;6278387;22;45593;-79
2022/05/09 06:55:56;;;;;;;;;16.50;16.25;;;;;16.07;52.54;101742.31;6305549;22;45759;-80
2022/05/09 06:58:25;;;;;;;;;17.00;15.00;;;;;16.00;52.62;101727.88;6282229;22;48106;-81
2022/05/09 07:00:52;;;;;;;;;15.75;15.00;;;;;16.07;52.67;101732.59;6311603;22;45951;-78
2022/05/09 07:03:18;;;;;;;;;19.00;17.50;;;;;16.13;52.49;101728.66;6308901;22;45427;-81
2022/05/09 07:09:09;;;;;;;;;18.50;15.50;;;;;16.25;52.40;101732.97;6311205;22;45384;-79
2022/05/09 07:11:35;;;;;;;;;16.75;16.00;;;;;16.25;52.35;101725.88;6308275;22;46164;-84
2022/05/09 07:14:00;;;;;;;;;17.25;16.00;;;;;16.31;52.19;101740.44;6307427;22;45533;-83
2022/05/09 07:16:25;;;;;;;;;15.00;15.00;;;;;16.28;52.07;101719.53;6311757;22;45526;-80
2022/05/09 07:18:51;;;;;;;;;20.00;17.00;;;;;16.38;52.25;101731.06;6311292;22;45533;-80
2022/05/09 07:21:16;;;;;;;;;20.00;18.50;;;;;16.37;52.33;101724.94;6308840;22;45691;-80
2022/05/09 07:23:42;;;;;;;;;18.50;15.75;;;;;16.49;52.15;101738.19;6280274;22;45680;-80
2022/05/09 07:26:07;;;;;;;;;17.75;16.00;;;;;16.50;52.12;101732.78;6307833;22;45649;-82
2022/05/09 07:28:33;;;;;;;;;19.75;19.25;;;;;16.49;52.29;101720.50;6306787;22;45698;-79
2022/05/09 07:31:00;;;;;;;;;19.75;18.25;;;;;16.57;52.15;101728.66;6309659;22;46444;-81
2022/05/09 07:33:27;;;;;;;;;16.75;16.75;;;;;16.61;51.86;101727.53;6311812;22;45403;-81
2022/05/09 07:39:14;;;;;;;;;21.00;19.50;;;;;16.73;52.14;101726.53;6309513;22;45466;-80
2022/05/09 07:41:40;;;;;;;;;19.25;17.00;;;;;16.78;51.47;101732.34;6310543;22;45530;-80
2022/05/09 07:44:05;;;;;;;;;22.75;17.25;;;;;16.84;51.57;101731.00;6282204;22;45712;-80
2022/05/09 07:46:30;;;;;;;;;22.00;19.75;;;;;16.91;51.92;101731.34;6304438;22;45504;-81
2022/05/09 07:48:56;;;;;;;;;21.50;18.50;;;;;16.90;52.12;101716.41;6307086;22;45806;-82
2022/05/09 07:54:43;;;;;;;;;20.00;18.25;;;;;17.07;51.72;101722.03;6303690;22;45514;-81
2022/05/09 07:57:09;;;;;;;;;25.50;22.75;;;;;17.15;51.65;101721.44;6304214;22;45493;-78
2022/05/09 07:59:35;;;;;;;;;24.00;21.00;;;;;17.18;51.56;101729.97;6303513;22;45503;-79
2022/05/09 08:02:01;;;;;;;;;21.25;18.00;;;;;17.23;51.65;101724.28;6303059;22;46377;-82
2022/05/09 08:04:26;;;;;;;;;24.00;19.75;;;;;17.18;51.40;101708.78;6303626;22;45587;-79
2022/05/09 08:06:51;;;;;;;;;21.25;18.25;;;;;17.35;51.29;101718.00;6303875;22;45353;-79
2022/05/09 08:09:17;;;;;;;;;22.50;19.25;;;;;17.34;51.15;101715.47;6303418;22;46417;-85
2022/05/09 08:11:44;;;;;;;;;23.75;20.25;;;;;17.47;51.34;101724.09;6303390;22;45390;-80
2022/05/09 08:14:11;;;;;;;;;20.50;18.25;;;;;17.50;51.38;101722.03;6303645;22;45770;-80
2022/05/09 08:16:37;;;;;;;;;23.00;20.25;;;;;17.57;51.40;101728.53;6304047;22;45564;-85
2022/05/09 08:19:02;;;;;;;;;20.75;19.50;;;;;17.59;51.38;101721.34;6302973;22;46692;-81
2022/05/09 08:24:49;;;;;;;;;23.25;22.00;;;;;17.71;51.54;101730.06;6303927;22;45692;-83
2022/05/09 08:27:15;;;;;;;;;20.25;18.25;;;;;17.77;51.55;101729.53;6275354;22;45588;-82
2022/05/09 08:29:40;;;;;;;;;21.00;20.00;;;;;17.73;51.08;101708.72;6303364;22;45701;-81
2022/05/09 08:32:06;;;;;;;;;27.25;24.25;;;;;17.77;50.83;101712.78;6305109;22;45495;-83
2022/05/09 08:34:32;;;;;;;;;24.25;21.75;;;;;17.89;51.10;101722.38;6303549;22;45618;-81
2022/05/09 08:36:57;;;;;;;;;25.50;23.75;;;;;17.97;51.07;101725.25;6304471;22;45544;-81
2022/05/09 08:39:26;;;;;;;;;20.75;19.75;;;;;18.01;50.84;101732.81;6303798;22;46509;-85
2022/05/09 08:41:57;;;;;;;;;20.50;18.75;;;;;18.08;50.68;101729.63;6304050;22;46251;-79
2022/05/09 08:44:28;;;;;;;;;22.50;20.50;;;;;18.14;50.95;101737.09;6303941;22;45596;-79
2022/05/09 08:47:09;;;;;;;;;26.25;22.00;;;;;18.19;50.53;101725.06;6304157;22;45689;-79
2022/05/09 08:50:19;;;;;;;;;28.50;26.00;;;;;18.25;51.02;101718.41;6303681;22;45621;-80
2022/05/09 08:52:53;;;;;;;;;22.75;21.00;;;;;18.30;50.61;101732.97;6243355;22;46564;-80
2022/05/09 08:55:35;;;;;;;;;21.75;21.50;;;;;18.38;50.82;101727.84;6303578;22;45747;-80
2022/05/09 08:58:28;;;;;;;;;28.75;27.00;;;;;18.43;50.27;101722.16;6303872;22;45603;-79
2022/05/09 09:00:55;;;;;;;;;23.75;20.50;;;;;18.48;49.97;101722.59;6303470;22;45489;-78
2022/05/09 09:03:38;;;;;;;;;23.25;22.25;;;;;18.57;49.80;101723.66;6303458;22;45982;-78
2022/05/09 09:06:22;;;;;;;;;30.75;26.00;;;;;18.57;49.94;101711.19;6303260;22;45687;-78
2022/05/09 09:09:18;;;;;;;;;25.00;22.75;;;;;18.70;50.06;101716.28;6303689;22;45430;-79
2022/05/09 09:12:12;;;;;;;;;27.50;25.00;;;;;18.72;49.72;101717.84;6303364;22;45560;-80
2022/05/09 09:15:05;;;;;;;;;26.25;24.75;;;;;18.81;49.74;101718.84;6303333;22;46091;-79
2022/05/09 09:17:49;;;;;;;;;25.50;24.00;;;;;18.88;49.54;101708.53;6275102;22;45625;-80
2022/05/09 09:23:49;;;;;;;;;25.00;23.25;;;;;19.02;49.46;101705.47;6302791;22;45536;-79
2022/05/09 09:26:29;;;;;;;;;30.00;25.50;;;;;19.07;49.02;101701.44;6303202;22;46611;-80
2022/05/09 09:28:59;;;;;;;;;28.25;26.00;;;;;19.09;49.38;101695.97;6303456;22;45562;-80
2022/05/09 09:31:34;;;;;;;;;26.00;24.25;;;;;19.15;48.76;101703.41;6303476;22;45629;-80
2022/05/09 09:34:13;;;;;;;;;24.25;22.75;;;;;19.18;49.25;101695.16;6303159;22;46417;-80
2022/05/09 09:40:00;;;;;;;;;25.50;22.50;;;;;19.30;49.04;101694.06;6299341;22;46452;-79
2022/05/09 09:42:26;;;;;;;;;26.50;23.50;;;;;19.40;48.62;101705.53;6303803;22;45609;-80
2022/05/09 09:44:54;;;;;;;;;30.25;25.75;;;;;19.45;48.45;101705.13;6303115;22;45549;-80
2022/05/09 09:47:19;;;;;;;;;24.75;22.50;;;;;19.56;48.27;101715.63;6303130;22;45536;-80
2022/05/09 09:49:48;;;;;;;;;25.00;23.00;;;;;19.61;48.35;101705.41;6303009;22;45438;-78
2022/05/09 09:55:39;;;;;;;;;25.00;22.50;;;;;19.76;48.19;101696.03;6305229;22;45498;-88
2022/05/09 09:58:24;;;;;;;;;25.75;24.50;;;;;19.82;47.96;101695.47;6305299;22;45634;-87
2022/05/09 10:01:10;;;;;;;;;25.50;23.00;;;;;19.93;48.16;101697.97;6303894;22;45561;-88
2022/05/09 10:03:40;;;;;;;;;23.25;22.00;;;;;19.92;47.68;101682.97;6308476;22;45601;-81
2022/05/09 10:06:20;;;;;;;;;25.75;23.75;;;;;19.96;47.61;101676.41;6303544;22;45575;-82
2022/05/09 10:08:53;;;;;;;;;30.25;26.50;;;;;20.14;47.45;101692.44;6303358;22;45997;-82
2022/05/09 10:11:18;;;;;;;;;26.75;24.50;;;;;20.19;47.17;101690.19;6301294;22;45681;-82
2022/05/09 10:13:47;;;;;;;;;24.75;23.75;;;;;20.19;47.37;101682.22;6304431;22;45438;-81
2022/05/09 10:16:33;;;;;;;;;27.00;24.50;;;;;20.30;46.94;101676.72;6305367;22;45503;-81
2022/05/09 10:19:03;;;;;;;;;21.25;19.75;;;;;20.42;46.52;101677.41;6306289;22;46008;-80
2022/05/09 10:24:50;;;;;;;;;22.50;21.50;;;;;20.56;46.06;101679.59;6306883;22;45487;-81
2022/05/09 10:27:22;;;;;;;;;27.00;24.25;;;;;20.66;45.57;101667.06;6304352;22;46918;-81
2022/05/09 10:29:56;;;;;;;;;23.25;22.50;;;;;20.71;44.87;101663.97;6305060;22;45969;-82
2022/05/09 10:32:47;;;;;;;;;22.50;21.25;;;;;20.79;44.96;101664.88;6310374;22;45507;-82
2022/05/09 10:35:18;;;;;;;;;26.00;24.00;;;;;20.86;44.72;101668.63;6292454;22;45621;-82
2022/05/09 10:37:53;;;;;;;;;22.50;20.75;;;;;20.95;44.71;101658.88;6307775;22;45603;-82
2022/05/09 10:40:25;;;;;;;;;25.25;23.50;;;;;21.05;44.48;101666.84;6307179;22;46502;-81
2022/05/09 10:43:10;;;;;;;;;22.25;20.50;;;;;21.12;44.32;101658.06;6282985;22;45723;-81
2022/05/09 10:45:48;;;;;;;;;19.50;19.50;;;;;21.17;44.28;101652.31;6312196;22;45646;-81
2022/05/09 10:48:29;;;;;;;;;21.50;19.25;;;;;21.25;44.12;101658.56;6284027;22;47385;-80
2022/05/09 10:54:24;;;;;;;;;22.25;20.75;;;;;21.41;43.30;101649.03;6311540;22;45404;-80
2022/05/09 10:57:02;;;;;;;;;21.50;19.00;;;;;21.56;44.15;101658.16;6283898;22;45439;-80
2022/05/09 10:59:31;;;;;;;;;22.00;20.75;;;;;21.59;43.42;101647.19;6310380;22;46813;-81
2022/05/09 11:02:33;;;;;;;;;27.75;20.75;;;;;21.61;43.58;101632.69;6308633;22;46023;-79
2022/05/09 11:04:58;;;;;;;;;20.75;19.00;;;;;21.67;43.46;101636.56;6154719;22;45525;-79
2022/05/09 11:11:00;;;;;;;;;20.50;20.25;;;;;21.87;42.80;101643.38;6155178;23;45611;-78
2022/05/09 11:13:37;;;;;;;;;25.00;23.75;;;;;21.89;42.53;101637.88;6154967;23;45913;-78
2022/05/09 11:16:27;;;;;;;;;20.75;18.75;;;;;22.05;42.41;101649.53;6150031;23;45768;-85
2022/05/09 11:19:14;;;;;;;;;19.50;18.00;;;;;22.11;42.56;101640.91;6149328;23;45634;-83
2022/05/09 11:25:15;;;;;;;;;21.50;19.50;;;;;22.23;41.76;101644.13;6153195;23;45646;-84
2022/05/09 11:28:07;;;;;;;;;20.75;19.50;;;;;22.25;41.64;101634.09;6155237;23;45555;-84
2022/05/09 11:30:39;;;;;;;;;19.75;17.50;;;;;22.34;42.37;101643.00;6155896;23;45460;-84
2022/05/09 11:33:23;;;;;;;;;22.75;22.75;;;;;22.32;41.80;101629.81;6156438;23;45658;-84
2022/05/09 11:35:54;;;;;;;;;20.75;18.00;;;;;22.44;41.51;101622.34;6130840;23;47517;-85
2022/05/09 11:45:16;;;;;;;;;21.00;20.00;;;;;22.64;42.03;101620.25;6313568;22;45712;-84
2022/05/09 11:48:03;;;;;;;;;20.50;19.00;;;;;22.72;41.29;101629.16;6314906;22;45453;-83
2022/05/09 11:50:45;;;;;;;;;19.25;18.00;;;;;22.67;41.82;101611.91;6286335;22;45475;-82
2022/05/09 11:56:33;;;;;;;;;25.50;23.00;;;;;22.82;40.75;101623.66;6308331;22;45972;-88
2022/05/09 11:59:00;;;;;;;;;19.75;19.00;;;;;22.79;40.65;101608.78;6307781;22;45605;-87
2022/05/09 12:01:52;;;;;;;;;21.75;19.50;;;;;22.90;41.57;101618.31;6281115;22;45455;-85
2022/05/09 12:04:47;;;;;;;;;18.25;17.25;;;;;22.86;41.07;101603.63;6312218;22;45551;-84
2022/05/09 12:07:24;;;;;;;;;21.00;19.25;;;;;22.96;40.73;101605.16;6314195;22;47936;-85
2022/05/09 12:10:04;;;;;;;;;21.00;18.75;;;;;23.01;40.76;101607.31;6313505;22;45858;-86
2022/05/09 12:12:43;;;;;;;;;20.75;20.25;;;;;23.06;40.87;101599.63;6313568;22;45499;-89
2022/05/09 12:15:15;;;;;;;;;19.00;17.00;;;;;23.11;40.44;101597.28;6314104;22;45637;-86
2022/05/09 12:18:07;;;;;;;;;19.75;18.00;;;;;23.07;40.94;101584.44;6314312;22;45467;-87
2022/05/09 12:20:38;;;;;;;;;19.50;18.75;;;;;23.21;41.10;101597.16;6156829;23;45582;-84
2022/05/09 12:23:07;;;;;;;;;18.50;17.25;;;;;23.27;40.81;101588.44;6157514;23;45695;-84
2022/05/09 12:25:34;;;;;;;;;18.25;17.00;;;;;23.30;41.51;101583.63;6157146;23;45764;-83
2022/05/09 12:28:02;;;;;;;;;18.75;17.00;;;;;23.34;40.42;101586.78;6157540;23;46362;-85
2022/05/09 12:31:01;;;;;;;;;21.00;19.25;;;;;23.33;40.64;101575.25;6158127;23;45932;-85
2022/05/09 12:33:33;;;;;;;;;19.75;18.25;;;;;23.40;40.53;101575.41;6069250;23;45772;-83
2022/05/09 12:36:22;;;;;;;;;18.50;17.75;;;;;23.46;39.86;101577.44;6069374;23;45534;-88
2022/05/09 12:38:50;;;;;;;;;23.00;21.50;;;;;23.44;39.54;101553.50;6067393;23;46911;-88
2022/05/09 12:41:23;;;;;;;;;18.25;17.25;;;;;23.51;39.58;101558.22;6068701;23;45484;-86
2022/05/09 12:44:10;;;;;;;;;19.25;18.00;;;;;23.59;38.74;101559.00;6068846;23;45498;-83
2022/05/09 12:46:44;;;;;;;;;20.25;17.75;;;;;23.63;38.86;101562.19;6069597;23;45536;-87
2022/05/09 12:49:11;;;;;;;;;21.25;19.75;;;;;23.62;39.04;101550.66;6069485;23;45722;-85
2022/05/09 12:57:44;;;;;;;;;17.75;17.75;;;;;23.78;38.53;101547.09;6148164;22;45710;-80
2022/05/09 13:00:17;;;;;;;;;22.25;19.00;;;;;23.77;38.73;101534.72;6192816;22;46613;-86
2022/05/09 13:02:42;;;;;;;;;21.00;17.50;;;;;23.87;38.46;101542.53;6217286;22;46173;-87
2022/05/09 13:05:12;;;;;;;;;20.00;19.25;;;;;23.87;38.40;101519.28;6193281;22;45483;-89
2022/05/09 13:10:59;;;;;;;;;21.50;19.00;;;;;23.94;38.03;101514.91;6312870;22;45859;-88